createdAt,value
2023-04-01T00:00:05.689Z,0.95
2023-04-01T00:02:33.792Z,1.02
2023-04-01T00:05:02.612Z,1.00
2023-04-01T00:07:31.788Z,1.10
2023-04-01T00:09:59.681Z,1.10
2023-04-01T00:12:27.609Z,1.30
2023-04-01T00:14:57.086Z,1.20
2023-04-01T00:17:27.128Z,1.20
2023-04-01T00:19:57.383Z,1.08
2023-04-01T00:22:25.843Z,1.05
2023-04-01T00:24:54.344Z,1.20
2023-04-01T00:27:22.386Z,1.05
2023-04-01T00:29:50.400Z,0.88
2023-04-01T00:32:19.737Z,0.93
2023-04-01T00:34:47.856Z,1.33
2023-04-01T00:37:15.820Z,1.00
2023-04-01T00:39:43.878Z,1.00
2023-04-01T00:42:13.290Z,1.17
2023-04-01T00:44:41.750Z,1.00
2023-04-01T00:47:09.758Z,1.20
2023-04-01T00:49:42.701Z,1.00
2023-04-01T00:52:14.912Z,1.20
2023-04-01T00:54:49.901Z,0.95
2023-04-01T00:57:23.773Z,1.13
2023-04-01T00:59:54.764Z,0.90
2023-04-01T01:02:23.364Z,1.13
2023-04-01T01:04:52.894Z,1.00
2023-04-01T01:07:30.859Z,1.33
2023-04-01T01:10:05.590Z,1.13
2023-04-01T01:12:39.189Z,1.42
2023-04-01T01:15:14.319Z,1.27
2023-04-01T01:17:52.134Z,1.30
2023-04-01T01:20:50.405Z,0.90
2023-04-01T01:23:52.967Z,1.13
2023-04-01T01:26:51.424Z,1.27
2023-04-01T01:30:02.762Z,1.17
2023-04-01T01:32:57.210Z,0.88
2023-04-01T01:35:30.703Z,1.30
2023-04-01T01:38:02.508Z,1.42
2023-04-01T01:40:35.173Z,1.15
2023-04-01T01:43:08.781Z,1.30
2023-04-01T01:45:42.745Z,1.13
2023-04-01T01:48:12.354Z,1.05
2023-04-01T01:50:43.792Z,1.10
2023-04-01T01:53:13.738Z,1.02
2023-04-01T01:55:44.087Z,1.15
2023-04-01T01:58:18.153Z,1.15
2023-04-01T02:00:50.654Z,1.13
2023-04-01T02:03:21.798Z,1.50
2023-04-01T02:05:54.270Z,1.15
2023-04-01T02:08:27.825Z,1.50
2023-04-01T02:10:59.956Z,1.23
2023-04-01T02:13:33.291Z,1.20
2023-04-01T02:16:05.870Z,0.98
2023-04-01T02:18:37.635Z,1.33
2023-04-01T02:21:09.407Z,1.40
2023-04-01T02:23:39.443Z,1.17
2023-04-01T02:26:09.516Z,1.42
2023-04-01T02:28:40.512Z,1.10
2023-04-01T02:31:10.887Z,1.23
2023-04-01T02:33:41.130Z,0.90
2023-04-01T02:36:14.383Z,1.15
2023-04-01T02:38:43.562Z,1.00
2023-04-01T02:41:14.081Z,1.00
2023-04-01T02:43:42.050Z,1.15
2023-04-01T02:46:10.111Z,1.38
2023-04-01T02:48:38.394Z,1.25
2023-04-01T02:51:11.544Z,1.20
2023-04-01T02:53:39.488Z,1.30
2023-04-01T02:56:07.720Z,1.20
2023-04-01T02:58:35.735Z,1.13
2023-04-01T03:01:03.700Z,1.00
2023-04-01T03:03:31.685Z,1.05
2023-04-01T03:06:07.765Z,1.40
2023-04-01T03:08:37.219Z,0.90
2023-04-01T03:11:06.129Z,0.90
2023-04-01T03:13:34.565Z,0.95
2023-04-01T03:16:03.294Z,0.93
2023-04-01T03:18:31.295Z,1.30
2023-04-01T03:20:59.312Z,1.13
2023-04-01T03:23:27.236Z,1.60
2023-04-01T03:25:56.502Z,1.10
2023-04-01T03:28:24.467Z,1.00
2023-04-01T03:30:52.386Z,0.90
2023-04-01T03:33:20.487Z,1.00
2023-04-01T03:35:48.445Z,0.98
2023-04-01T03:38:17.592Z,0.85
2023-04-01T03:40:45.848Z,1.13
2023-04-01T03:43:15.319Z,1.20
2023-04-01T03:45:46.432Z,0.70
2023-04-01T03:48:14.472Z,0.90
2023-04-01T03:50:45.745Z,0.73
2023-04-01T03:53:13.717Z,0.65
2023-04-01T03:55:41.960Z,1.23
2023-04-01T03:58:10.371Z,0.95
2023-04-01T04:00:39.670Z,0.70
2023-04-01T04:03:08.743Z,0.82
2023-04-01T04:05:37.078Z,0.80
2023-04-01T04:08:05.386Z,0.70
2023-04-01T04:10:33.332Z,0.75
2023-04-01T04:13:01.306Z,0.82
2023-04-01T04:15:29.278Z,1.00
2023-04-01T04:17:58.685Z,0.82
2023-04-01T04:20:26.646Z,0.82
2023-04-01T04:22:54.690Z,0.75
2023-04-01T04:25:25.331Z,0.90
2023-04-01T04:27:53.254Z,0.60
2023-04-01T04:30:21.430Z,0.80
2023-04-01T04:32:49.411Z,0.60
2023-04-01T04:35:21.400Z,0.80
2023-04-01T04:37:49.308Z,0.80
2023-04-01T04:40:17.465Z,0.70
2023-04-01T04:42:45.561Z,0.70
2023-04-01T04:45:14.128Z,0.68
2023-04-01T04:47:42.168Z,0.85
2023-04-01T04:50:11.304Z,0.68
2023-04-01T04:52:40.645Z,0.60
2023-04-01T04:55:09.508Z,1.00
2023-04-01T04:57:39.482Z,0.90
2023-04-01T05:00:08.933Z,0.80
2023-04-01T05:02:36.989Z,0.63
2023-04-01T05:05:05.589Z,0.57
2023-04-01T05:07:33.509Z,0.90
2023-04-01T05:10:02.944Z,0.80
2023-04-01T05:12:30.826Z,0.98
2023-04-01T05:14:58.748Z,1.20
2023-04-01T05:17:26.870Z,0.60
2023-04-01T05:19:54.801Z,0.80
2023-04-01T05:22:22.768Z,0.60
2023-04-01T05:24:50.817Z,0.80
2023-04-01T05:27:20.247Z,0.70
2023-04-01T05:29:48.283Z,0.80
2023-04-01T05:32:16.494Z,0.73
2023-04-01T05:34:44.664Z,0.82
2023-04-01T05:37:15.399Z,0.93
2023-04-01T05:39:43.426Z,0.60
2023-04-01T05:42:11.386Z,0.60
2023-04-01T05:44:40.678Z,0.60
2023-04-01T05:47:08.768Z,0.93
2023-04-01T05:49:36.702Z,1.02
2023-04-01T05:52:04.760Z,0.88
2023-04-01T05:54:32.708Z,0.80
2023-04-01T05:57:00.677Z,0.90
2023-04-01T05:59:28.673Z,0.70
2023-04-01T06:01:59.403Z,0.70
2023-04-01T06:04:34.000Z,0.70
2023-04-01T06:07:01.983Z,0.88
2023-04-01T06:09:31.960Z,0.70
2023-04-01T06:12:40.921Z,0.90
2023-04-01T06:15:25.538Z,0.75
2023-04-01T06:18:27.718Z,0.80
2023-04-01T06:21:03.801Z,0.90
2023-04-01T06:23:47.373Z,0.70
2023-04-01T06:26:26.193Z,0.70
2023-04-01T06:29:21.499Z,0.80
2023-04-01T06:32:11.412Z,0.77
2023-04-01T06:34:55.715Z,0.57
2023-04-01T06:37:47.035Z,0.85
2023-04-01T06:40:36.765Z,0.70
2023-04-01T06:43:17.244Z,1.20
2023-04-01T06:45:56.754Z,0.90
2023-04-01T06:48:44.057Z,1.08
2023-04-01T06:51:25.702Z,1.00
2023-04-01T06:54:02.572Z,1.10
2023-04-01T06:56:31.605Z,1.15
2023-04-01T06:59:02.210Z,0.90
2023-04-01T07:01:35.008Z,1.00
2023-04-01T07:04:08.187Z,0.90
2023-04-01T07:06:45.602Z,1.17
2023-04-01T07:09:18.403Z,1.40
2023-04-01T07:11:47.350Z,1.02
2023-04-01T07:14:20.824Z,1.40
2023-04-01T07:16:53.911Z,1.23
2023-04-01T07:19:31.454Z,1.17
2023-04-01T07:22:04.314Z,1.10
2023-04-01T07:24:36.233Z,1.38
2023-04-01T07:27:10.951Z,1.08
2023-04-01T07:32:24.583Z,0.77
2023-04-01T07:35:19.561Z,1.10
2023-04-01T07:38:04.692Z,1.00
2023-04-01T07:40:42.692Z,1.02
2023-04-01T07:43:32.687Z,1.20
2023-04-01T07:46:08.775Z,0.90
2023-04-01T07:48:46.136Z,0.80
2023-04-01T07:51:19.290Z,0.80
2023-04-01T07:53:54.092Z,0.70
2023-04-01T07:56:29.056Z,1.10
2023-04-01T07:59:07.709Z,0.88
2023-04-01T08:01:42.550Z,0.88
2023-04-01T08:04:27.559Z,0.80
2023-04-01T08:07:01.387Z,0.80
2023-04-01T08:09:45.455Z,1.00
2023-04-01T08:12:24.327Z,1.00
2023-04-01T08:15:06.799Z,0.70
2023-04-01T08:20:26.102Z,0.50
2023-04-01T08:22:59.564Z,0.80
2023-04-01T08:25:32.420Z,0.68
2023-04-01T08:28:05.889Z,1.55
2023-04-01T08:30:43.201Z,0.95
2023-04-01T08:33:17.903Z,0.80
2023-04-01T08:35:52.628Z,0.90
2023-04-01T08:38:26.996Z,0.90
2023-04-01T08:41:01.803Z,0.80
2023-04-01T08:43:49.892Z,1.08
2023-04-01T08:46:39.488Z,0.80
2023-04-01T08:49:18.308Z,0.98
2023-04-01T08:52:11.960Z,0.80
2023-04-01T08:55:06.719Z,0.70
2023-04-01T08:57:52.106Z,0.52
2023-04-01T09:00:32.440Z,0.80
2023-04-01T09:03:41.044Z,0.60
2023-04-01T09:06:28.991Z,0.90
2023-04-01T09:09:18.581Z,0.75
2023-04-01T09:12:19.864Z,0.77
2023-04-01T09:15:14.181Z,0.63
2023-04-01T09:18:10.061Z,0.60
2023-04-01T09:20:48.415Z,0.60
2023-04-01T09:23:34.107Z,0.50
2023-04-01T09:26:16.052Z,0.63
2023-04-01T09:28:53.693Z,0.70
2023-04-01T09:31:43.974Z,1.02
2023-04-01T09:34:39.145Z,0.70
2023-04-01T09:37:27.871Z,0.75
2023-04-01T09:40:16.168Z,0.70
2023-04-01T09:42:46.552Z,0.65
2023-04-01T09:45:30.014Z,0.52
2023-04-01T09:48:13.429Z,0.75
2023-04-01T09:50:53.457Z,0.50
2023-04-01T09:53:35.889Z,0.60
2023-04-01T09:59:22.561Z,0.50
2023-04-01T10:02:22.472Z,0.55
2023-04-01T10:05:27.780Z,0.60
2023-04-01T10:08:29.333Z,0.88
2023-04-01T10:11:32.005Z,0.65
2023-04-01T10:14:29.080Z,0.52
2023-04-01T10:17:15.396Z,1.02
2023-04-01T10:20:04.659Z,1.02
2023-04-01T10:23:23.448Z,0.90
2023-04-01T10:26:14.567Z,0.80
2023-04-01T10:29:33.815Z,0.80
2023-04-01T10:32:44.855Z,0.85
2023-04-01T10:36:02.324Z,1.20
2023-04-01T10:39:00.922Z,0.70
2023-04-01T10:42:10.315Z,0.65
2023-04-01T10:45:23.286Z,1.02
2023-04-01T10:51:16.915Z,0.85
2023-04-01T10:54:17.567Z,0.70
2023-04-01T10:56:54.035Z,0.82
2023-04-01T10:59:47.597Z,0.90
2023-04-01T11:03:06.228Z,1.00
2023-04-01T11:06:13.127Z,1.15
2023-04-01T11:09:24.721Z,0.98
2023-04-01T11:12:33.236Z,1.15
2023-04-01T11:15:42.727Z,0.75
2023-04-01T11:18:42.737Z,1.10
2023-04-01T11:21:41.416Z,1.05
2023-04-01T11:24:33.373Z,1.25
2023-04-01T11:27:14.724Z,1.00
2023-04-01T11:30:13.608Z,0.98
2023-04-01T11:32:55.116Z,1.08
2023-04-01T11:35:57.841Z,1.20
2023-04-01T11:41:28.324Z,1.13
2023-04-01T11:44:13.229Z,0.95
2023-04-01T11:46:51.191Z,1.00
2023-04-01T11:49:33.413Z,1.88
2023-04-01T11:52:17.411Z,1.48
2023-04-01T11:55:01.789Z,1.20
2023-04-01T11:57:46.126Z,1.30
2023-04-01T12:00:28.440Z,0.90
2023-04-01T12:03:12.804Z,1.00
2023-04-01T12:05:49.842Z,1.20
2023-04-01T12:08:41.357Z,1.30
2023-04-01T12:11:18.709Z,1.08
2023-04-01T12:13:55.196Z,1.13
2023-04-01T12:16:35.035Z,1.30
2023-04-01T12:19:11.159Z,1.15
2023-04-01T12:21:54.309Z,0.90
2023-04-01T12:24:38.175Z,1.20
2023-04-01T12:27:31.957Z,1.02
2023-04-01T12:30:23.932Z,0.80
2023-04-01T12:33:02.058Z,0.70
2023-04-01T12:35:38.837Z,1.10
2023-04-01T12:38:21.130Z,0.93
2023-04-01T12:40:57.341Z,1.10
2023-04-01T12:44:00.466Z,0.90
2023-04-01T12:46:41.284Z,0.88
2023-04-01T12:49:27.293Z,0.80
2023-04-01T12:52:11.228Z,0.95
2023-04-01T12:55:23.389Z,0.93
2023-04-01T12:58:24.652Z,1.23
2023-04-01T13:01:21.774Z,1.55
2023-04-01T13:04:18.236Z,0.90
2023-04-01T13:06:58.451Z,1.20
2023-04-01T13:09:42.441Z,1.10
2023-04-01T13:12:32.129Z,1.20
2023-04-01T13:15:15.077Z,1.08
2023-04-01T13:17:52.471Z,1.17
2023-04-01T13:20:33.787Z,1.40
2023-04-01T13:23:16.615Z,0.93
2023-04-01T13:25:59.201Z,1.30
2023-04-01T13:28:41.750Z,0.98
2023-04-01T13:31:24.326Z,1.00
2023-04-01T13:34:02.357Z,1.33
2023-04-01T13:36:43.829Z,1.00
2023-04-01T13:39:31.828Z,1.30
2023-04-01T13:42:29.528Z,1.17
2023-04-01T13:45:03.773Z,1.35
2023-04-01T13:47:58.946Z,1.00
2023-04-01T13:50:49.365Z,1.00
2023-04-01T13:53:33.120Z,0.98
2023-04-01T13:56:18.707Z,1.13
2023-04-01T13:59:08.419Z,1.13
2023-04-01T14:01:46.559Z,1.30
2023-04-01T14:04:39.141Z,1.10
2023-04-01T14:07:21.168Z,1.02
2023-04-01T14:10:10.231Z,1.10
2023-04-01T14:12:44.683Z,1.00
2023-04-01T14:15:34.447Z,1.00
2023-04-01T14:18:22.066Z,0.90
2023-04-01T14:21:04.481Z,1.42
2023-04-01T14:23:54.067Z,1.10
2023-04-01T14:26:44.454Z,1.00
2023-04-01T14:29:24.196Z,1.17
2023-04-01T14:32:04.551Z,1.02
2023-04-01T14:34:56.905Z,1.10
2023-04-01T14:37:42.824Z,1.33
2023-04-01T14:40:24.210Z,1.10
2023-04-01T14:43:22.971Z,1.23
2023-04-01T14:46:18.641Z,1.45
2023-04-01T14:48:55.103Z,1.35
2023-04-01T14:51:30.915Z,0.77
2023-04-01T14:54:07.458Z,1.27
2023-04-01T14:56:44.071Z,1.40
2023-04-01T14:59:28.146Z,2.30
2023-04-01T15:02:02.757Z,2.33
2023-04-01T15:04:52.327Z,3.00
2023-04-01T15:08:03.035Z,3.00
2023-04-01T15:11:05.558Z,2.78
2023-04-01T15:14:01.060Z,2.55
2023-04-01T15:16:39.040Z,2.95
2023-04-01T15:19:17.977Z,2.60
2023-04-01T15:22:17.725Z,2.58
2023-04-01T15:24:49.934Z,2.40
2023-04-01T15:30:20.540Z,2.13
2023-04-01T15:33:04.138Z,2.30
2023-04-01T15:35:42.859Z,2.00
2023-04-01T15:38:24.112Z,2.10
2023-04-01T15:41:00.580Z,2.25
2023-04-01T15:43:39.234Z,2.13
2023-04-01T15:46:28.711Z,1.95
2023-04-01T15:49:10.492Z,2.20
2023-04-01T15:51:57.537Z,2.05
2023-04-01T15:54:49.887Z,1.75
2023-04-01T15:57:27.904Z,2.25
2023-04-01T16:00:09.352Z,1.90
2023-04-01T16:02:46.220Z,3.45
2023-04-01T16:05:36.518Z,2.10
2023-04-01T16:08:43.727Z,1.90
2023-04-01T16:11:21.641Z,2.13
2023-04-01T16:13:58.528Z,2.00
2023-04-01T16:16:38.908Z,1.90
2023-04-01T16:19:23.318Z,1.70
2023-04-01T16:21:57.018Z,1.75
2023-04-01T16:24:35.416Z,1.60
2023-04-01T16:27:07.840Z,1.90
2023-04-01T16:29:43.388Z,1.90
2023-04-01T16:32:23.749Z,2.03
2023-04-01T16:35:06.057Z,1.70
2023-04-01T16:37:45.744Z,1.60
2023-04-01T16:40:26.243Z,1.70
2023-04-01T16:42:55.908Z,1.50
2023-04-01T16:45:35.263Z,1.60
2023-04-01T16:48:13.364Z,1.65
2023-04-01T16:50:54.411Z,1.40
2023-04-01T16:53:33.174Z,1.50
2023-04-01T16:56:11.111Z,1.70
2023-04-01T16:58:44.067Z,1.58
2023-04-01T17:01:16.214Z,1.60
2023-04-01T17:03:46.898Z,1.80
2023-04-01T17:06:27.254Z,1.23
2023-04-01T17:09:13.222Z,1.65
2023-04-01T17:11:47.313Z,1.60
2023-04-01T17:14:23.172Z,1.67
2023-04-01T17:17:02.194Z,1.50
2023-04-01T17:19:43.007Z,1.48
2023-04-01T17:22:23.895Z,1.58
2023-04-01T17:25:06.500Z,1.70
2023-04-01T17:27:47.856Z,1.50
2023-04-01T17:30:25.749Z,1.70
2023-04-01T17:33:26.032Z,2.00
2023-04-01T17:36:00.688Z,1.98
2023-04-01T17:39:03.812Z,1.50
2023-04-01T17:41:44.745Z,1.50
2023-04-01T17:44:23.869Z,1.63
2023-04-01T17:47:15.400Z,1.60
2023-04-01T17:49:53.010Z,1.90
2023-04-01T17:52:29.684Z,1.70
2023-04-01T17:55:06.806Z,1.58
2023-04-01T17:57:47.996Z,1.70
2023-04-01T18:00:23.993Z,1.80
2023-04-01T18:03:04.479Z,2.00
2023-04-01T18:05:41.644Z,1.65
2023-04-01T18:08:27.050Z,1.63
2023-04-01T18:11:07.821Z,1.90
2023-04-01T18:14:04.731Z,1.65
2023-04-01T18:16:49.291Z,1.80
2023-04-01T18:19:27.993Z,1.55
2023-04-01T18:22:00.748Z,1.55
2023-04-01T18:24:35.537Z,1.58
2023-04-01T18:27:06.337Z,2.00
2023-04-01T18:29:42.476Z,1.58
2023-04-01T18:32:19.881Z,1.85
2023-04-01T18:35:01.747Z,1.80
2023-04-01T18:37:34.146Z,1.65
2023-04-01T18:40:15.928Z,2.20
2023-04-01T18:42:55.264Z,1.77
2023-04-01T18:45:30.928Z,1.90
2023-04-01T18:48:10.538Z,1.95
2023-04-01T18:50:43.783Z,1.60
2023-04-01T18:53:20.592Z,1.80
2023-04-01T18:55:51.745Z,1.40
2023-04-01T18:58:28.256Z,1.60
2023-04-01T19:01:22.547Z,2.20
2023-04-01T19:04:14.721Z,1.63
2023-04-01T19:06:49.962Z,1.50
2023-04-01T19:09:28.577Z,1.98
2023-04-01T19:12:22.096Z,1.95
2023-04-01T19:14:57.872Z,1.60
2023-04-01T19:17:45.041Z,1.90
2023-04-01T19:20:25.822Z,2.08
2023-04-01T19:23:30.448Z,2.00
2023-04-01T19:26:02.740Z,1.80
2023-04-01T19:31:26.476Z,1.80
2023-04-01T19:34:13.226Z,1.60
2023-04-01T19:36:48.546Z,1.50
2023-04-01T19:39:30.756Z,1.80
2023-04-01T19:42:08.410Z,1.65
2023-04-01T19:44:48.491Z,2.00
2023-04-01T19:47:24.675Z,1.65
2023-04-01T19:50:06.686Z,1.65
2023-04-01T19:52:38.458Z,1.65
2023-04-01T19:55:18.885Z,1.85
2023-04-01T19:57:52.328Z,1.50
2023-04-01T20:00:26.070Z,1.90
2023-04-01T20:03:07.459Z,1.55
2023-04-01T20:05:46.816Z,1.73
2023-04-01T20:08:22.242Z,1.80
2023-04-01T20:11:02.572Z,2.08
2023-04-01T20:13:36.236Z,1.77
2023-04-01T20:16:07.024Z,1.83
2023-04-01T20:18:46.364Z,1.63
2023-04-01T20:21:36.824Z,1.80
2023-04-01T20:24:16.944Z,1.90
2023-04-01T20:26:51.274Z,1.60
2023-04-01T20:29:44.293Z,1.70
2023-04-01T20:32:30.545Z,1.90
2023-04-01T20:35:17.680Z,1.75
2023-04-01T20:37:55.865Z,1.80
2023-04-01T20:40:36.438Z,1.83
2023-04-01T20:43:26.775Z,2.03
2023-04-01T20:46:00.351Z,1.67
2023-04-01T20:48:59.927Z,1.85
2023-04-01T20:51:31.945Z,1.70
2023-04-01T20:54:19.499Z,2.00
2023-04-01T20:57:00.121Z,2.10
2023-04-01T20:59:43.567Z,1.83
2023-04-01T21:02:26.109Z,1.90
2023-04-01T21:05:24.674Z,2.20
2023-04-01T21:07:56.525Z,2.10
2023-04-01T21:10:43.442Z,1.92
2023-04-01T21:13:28.207Z,2.33
2023-04-01T21:16:10.802Z,2.22
2023-04-01T21:18:58.968Z,2.20
2023-04-01T21:22:00.046Z,1.98
2023-04-01T21:24:49.554Z,2.10
2023-04-01T21:27:36.018Z,2.03
2023-04-01T21:30:21.203Z,1.92
2023-04-01T21:33:04.388Z,2.00
2023-04-01T21:35:42.458Z,1.95
2023-04-01T21:38:24.161Z,2.10
2023-04-01T21:41:10.881Z,2.08
2023-04-01T21:44:03.345Z,2.10
2023-04-01T21:46:52.268Z,2.15
2023-04-01T21:49:40.996Z,1.98
2023-04-01T21:52:27.034Z,2.17
2023-04-01T21:55:30.974Z,2.35
2023-04-01T21:58:32.337Z,2.05
2023-04-01T22:01:17.890Z,1.92
2023-04-01T22:04:16.128Z,2.13
2023-04-01T22:06:51.000Z,2.00
2023-04-01T22:09:27.164Z,1.90
2023-04-01T22:12:02.540Z,2.00
2023-04-01T22:14:36.622Z,2.08
2023-04-01T22:17:14.680Z,1.80
2023-04-01T22:19:57.614Z,1.70
2023-04-01T22:22:32.929Z,2.10
2023-04-01T22:25:08.272Z,2.00
2023-04-01T22:27:43.655Z,1.90
2023-04-01T22:30:18.448Z,1.98
2023-04-01T22:32:50.955Z,1.70
2023-04-01T22:35:35.795Z,1.67
2023-04-01T22:38:16.700Z,1.80
2023-04-01T22:40:53.838Z,2.00
2023-04-01T22:43:30.233Z,1.85
2023-04-01T22:46:25.566Z,1.50
2023-04-01T22:48:58.926Z,1.90
2023-04-01T22:51:42.418Z,1.88
2023-04-01T22:54:17.899Z,1.60
2023-04-01T22:56:49.995Z,1.67
2023-04-01T22:59:25.567Z,2.10
2023-04-01T23:01:58.143Z,1.70
2023-04-01T23:04:33.774Z,1.70
2023-04-01T23:07:06.018Z,1.85
2023-04-01T23:09:37.925Z,1.90
2023-04-01T23:12:15.591Z,1.70
2023-04-01T23:14:48.859Z,1.80
2023-04-01T23:17:50.167Z,1.92
2023-04-01T23:20:32.928Z,1.63
2023-04-01T23:23:23.412Z,1.83
2023-04-01T23:26:02.242Z,1.88
2023-04-01T23:28:44.557Z,1.80
2023-04-01T23:31:40.596Z,1.80
2023-04-01T23:34:33.264Z,1.70
2023-04-01T23:39:36.710Z,1.80
2023-04-01T23:42:07.913Z,1.88
2023-04-01T23:44:39.238Z,1.60
2023-04-01T23:47:10.044Z,1.80
2023-04-01T23:49:43.973Z,1.80
2023-04-01T23:52:19.268Z,1.80
2023-04-01T23:54:51.595Z,1.50
2023-04-01T23:57:23.995Z,1.90
